sensor_id;sensor_type;location;lat;lon;timestamp;P1;durP1;ratioP1;P2;durP2;ratioP2
239;SDS011;104;53.590;10.004;2022-09-17T00:00:07;4.30;;;3.90;;
239;SDS011;104;53.590;10.004;2022-09-17T00:02:39;9.23;;;4.20;;
239;SDS011;104;53.590;10.004;2022-09-17T00:05:08;5.40;;;3.83;;
239;SDS011;104;53.590;10.004;2022-09-17T00:07:36;5.70;;;4.20;;
239;SDS011;104;53.590;10.004;2022-09-17T00:10:03;4.60;;;4.30;;
239;SDS011;104;53.590;10.004;2022-09-17T00:12:32;7.17;;;3.87;;
239;SDS011;104;53.590;10.004;2022-09-17T00:14:59;6.73;;;4.47;;
239;SDS011;104;53.590;10.004;2022-09-17T00:17:26;7.60;;;4.63;;
239;SDS011;104;53.590;10.004;2022-09-17T00:19:53;11.67;;;6.10;;
239;SDS011;104;53.590;10.004;2022-09-17T00:22:20;11.00;;;3.87;;
239;SDS011;104;53.590;10.004;2022-09-17T00:24:47;4.80;;;4.17;;
239;SDS011;104;53.590;10.004;2022-09-17T00:27:14;5.43;;;4.23;;
239;SDS011;104;53.590;10.004;2022-09-17T00:29:42;6.90;;;4.77;;
239;SDS011;104;53.590;10.004;2022-09-17T00:32:09;7.93;;;4.20;;
239;SDS011;104;53.590;10.004;2022-09-17T00:34:36;5.10;;;4.37;;
239;SDS011;104;53.590;10.004;2022-09-17T00:37:03;5.47;;;4.67;;
239;SDS011;104;53.590;10.004;2022-09-17T00:39:30;6.13;;;4.00;;
239;SDS011;104;53.590;10.004;2022-09-17T00:41:57;5.10;;;4.03;;
239;SDS011;104;53.590;10.004;2022-09-17T00:44:38;5.57;;;4.00;;
239;SDS011;104;53.590;10.004;2022-09-17T00:47:17;8.47;;;4.40;;
239;SDS011;104;53.590;10.004;2022-09-17T00:49:48;8.67;;;5.00;;
239;SDS011;104;53.590;10.004;2022-09-17T00:52:18;5.03;;;4.60;;
239;SDS011;104;53.590;10.004;2022-09-17T00:54:56;6.60;;;4.60;;
239;SDS011;104;53.590;10.004;2022-09-17T00:57:27;4.90;;;4.60;;
239;SDS011;104;53.590;10.004;2022-09-17T00:59:57;8.13;;;5.03;;
239;SDS011;104;53.590;10.004;2022-09-17T01:02:24;10.37;;;5.27;;
239;SDS011;104;53.590;10.004;2022-09-17T01:04:51;7.13;;;5.00;;
239;SDS011;104;53.590;10.004;2022-09-17T01:07:28;7.10;;;4.67;;
239;SDS011;104;53.590;10.004;2022-09-17T01:10:11;8.57;;;5.20;;
239;SDS011;104;53.590;10.004;2022-09-17T01:12:50;5.30;;;4.87;;
239;SDS011;104;53.590;10.004;2022-09-17T01:15:30;8.00;;;4.67;;
239;SDS011;104;53.590;10.004;2022-09-17T01:18:08;14.33;;;5.43;;
239;SDS011;104;53.590;10.004;2022-09-17T01:24:16;11.53;;;5.03;;
239;SDS011;104;53.590;10.004;2022-09-17T01:27:14;7.40;;;4.93;;
239;SDS011;104;53.590;10.004;2022-09-17T01:30:08;6.43;;;5.03;;
239;SDS011;104;53.590;10.004;2022-09-17T01:32:45;4.90;;;4.60;;
239;SDS011;104;53.590;10.004;2022-09-17T01:35:19;6.73;;;4.53;;
239;SDS011;104;53.590;10.004;2022-09-17T01:37:53;5.33;;;4.63;;
239;SDS011;104;53.590;10.004;2022-09-17T01:40:27;5.37;;;4.43;;
239;SDS011;104;53.590;10.004;2022-09-17T01:43:03;4.50;;;4.17;;
239;SDS011;104;53.590;10.004;2022-09-17T01:45:37;5.87;;;4.53;;
239;SDS011;104;53.590;10.004;2022-09-17T01:48:10;4.10;;;3.90;;
239;SDS011;104;53.590;10.004;2022-09-17T01:50:43;4.00;;;3.77;;
239;SDS011;104;53.590;10.004;2022-09-17T01:53:15;13.20;;;5.00;;
239;SDS011;104;53.590;10.004;2022-09-17T01:55:44;5.67;;;4.33;;
239;SDS011;104;53.590;10.004;2022-09-17T01:58:15;4.30;;;3.67;;
239;SDS011;104;53.590;10.004;2022-09-17T02:00:49;6.77;;;4.47;;
239;SDS011;104;53.590;10.004;2022-09-17T02:03:21;6.50;;;3.93;;
239;SDS011;104;53.590;10.004;2022-09-17T02:05:55;5.83;;;3.73;;
239;SDS011;104;53.590;10.004;2022-09-17T02:08:28;5.03;;;3.37;;
239;SDS011;104;53.590;10.004;2022-09-17T02:10:58;10.80;;;3.73;;
239;SDS011;104;53.590;10.004;2022-09-17T02:13:32;4.90;;;3.40;;
239;SDS011;104;53.590;10.004;2022-09-17T02:16:04;8.33;;;3.27;;
239;SDS011;104;53.590;10.004;2022-09-17T02:18:35;6.30;;;3.40;;
239;SDS011;104;53.590;10.004;2022-09-17T02:21:10;3.80;;;3.67;;
239;SDS011;104;53.590;10.004;2022-09-17T02:23:42;9.83;;;3.73;;
239;SDS011;104;53.590;10.004;2022-09-17T02:26:14;5.80;;;4.00;;
239;SDS011;104;53.590;10.004;2022-09-17T02:28:44;8.00;;;4.07;;
239;SDS011;104;53.590;10.004;2022-09-17T02:31:14;5.63;;;3.43;;
239;SDS011;104;53.590;10.004;2022-09-17T02:33:45;7.00;;;4.27;;
239;SDS011;104;53.590;10.004;2022-09-17T02:36:15;7.80;;;4.50;;
239;SDS011;104;53.590;10.004;2022-09-17T02:38:42;6.57;;;4.20;;
239;SDS011;104;53.590;10.004;2022-09-17T02:41:13;7.43;;;4.43;;
239;SDS011;104;53.590;10.004;2022-09-17T02:43:46;5.63;;;4.70;;
239;SDS011;104;53.590;10.004;2022-09-17T02:46:42;6.50;;;4.90;;
239;SDS011;104;53.590;10.004;2022-09-17T02:49:37;13.20;;;5.50;;
239;SDS011;104;53.590;10.004;2022-09-17T02:52:24;7.80;;;4.73;;
239;SDS011;104;53.590;10.004;2022-09-17T02:55:06;8.20;;;5.53;;
239;SDS011;104;53.590;10.004;2022-09-17T02:57:42;11.83;;;5.37;;
239;SDS011;104;53.590;10.004;2022-09-17T03:00:13;7.30;;;5.50;;
239;SDS011;104;53.590;10.004;2022-09-17T03:02:43;8.10;;;5.30;;
239;SDS011;104;53.590;10.004;2022-09-17T03:05:15;8.70;;;5.20;;
239;SDS011;104;53.590;10.004;2022-09-17T03:07:45;7.17;;;4.73;;
239;SDS011;104;53.590;10.004;2022-09-17T03:10:12;12.27;;;5.33;;
239;SDS011;104;53.590;10.004;2022-09-17T03:12:40;6.30;;;5.00;;
239;SDS011;104;53.590;10.004;2022-09-17T03:15:07;6.83;;;5.33;;
239;SDS011;104;53.590;10.004;2022-09-17T03:17:35;9.93;;;5.30;;
239;SDS011;104;53.590;10.004;2022-09-17T03:20:03;8.90;;;6.03;;
239;SDS011;104;53.590;10.004;2022-09-17T03:22:31;7.90;;;5.30;;
239;SDS011;104;53.590;10.004;2022-09-17T03:24:59;14.90;;;5.43;;
239;SDS011;104;53.590;10.004;2022-09-17T03:27:26;5.67;;;5.17;;
239;SDS011;104;53.590;10.004;2022-09-17T03:29:54;9.13;;;5.60;;
239;SDS011;104;53.590;10.004;2022-09-17T03:32:21;7.43;;;5.50;;
239;SDS011;104;53.590;10.004;2022-09-17T03:34:48;7.67;;;5.43;;
239;SDS011;104;53.590;10.004;2022-09-17T03:37:15;17.10;;;5.70;;
239;SDS011;104;53.590;10.004;2022-09-17T03:39:44;10.37;;;5.77;;
239;SDS011;104;53.590;10.004;2022-09-17T03:42:11;8.27;;;5.70;;
239;SDS011;104;53.590;10.004;2022-09-17T03:44:38;9.33;;;5.60;;
239;SDS011;104;53.590;10.004;2022-09-17T03:47:05;6.63;;;5.20;;
239;SDS011;104;53.590;10.004;2022-09-17T03:49:32;14.10;;;5.80;;
239;SDS011;104;53.590;10.004;2022-09-17T03:51:59;13.90;;;6.07;;
239;SDS011;104;53.590;10.004;2022-09-17T03:54:26;14.37;;;6.67;;
239;SDS011;104;53.590;10.004;2022-09-17T03:56:55;10.47;;;5.90;;
239;SDS011;104;53.590;10.004;2022-09-17T03:59:22;15.73;;;6.90;;
239;SDS011;104;53.590;10.004;2022-09-17T04:01:48;10.17;;;6.13;;
239;SDS011;104;53.590;10.004;2022-09-17T04:04:15;10.83;;;6.60;;
239;SDS011;104;53.590;10.004;2022-09-17T04:06:42;14.50;;;6.17;;
239;SDS011;104;53.590;10.004;2022-09-17T04:09:09;11.47;;;6.33;;
239;SDS011;104;53.590;10.004;2022-09-17T04:11:36;9.43;;;5.80;;
239;SDS011;104;53.590;10.004;2022-09-17T04:14:05;16.93;;;7.00;;
239;SDS011;104;53.590;10.004;2022-09-17T04:16:32;12.43;;;6.70;;
239;SDS011;104;53.590;10.004;2022-09-17T04:18:59;6.93;;;5.70;;
239;SDS011;104;53.590;10.004;2022-09-17T04:21:26;13.83;;;6.40;;
239;SDS011;104;53.590;10.004;2022-09-17T04:23:53;12.03;;;6.50;;
239;SDS011;104;53.590;10.004;2022-09-17T04:26:20;15.20;;;6.90;;
239;SDS011;104;53.590;10.004;2022-09-17T04:28:47;19.90;;;6.57;;
239;SDS011;104;53.590;10.004;2022-09-17T04:31:15;11.43;;;6.20;;
239;SDS011;104;53.590;10.004;2022-09-17T04:33:42;13.13;;;5.50;;
239;SDS011;104;53.590;10.004;2022-09-17T04:36:09;13.47;;;6.63;;
239;SDS011;104;53.590;10.004;2022-09-17T04:38:36;15.70;;;6.53;;
239;SDS011;104;53.590;10.004;2022-09-17T04:41:05;13.33;;;6.37;;
239;SDS011;104;53.590;10.004;2022-09-17T04:43:32;17.27;;;6.70;;
239;SDS011;104;53.590;10.004;2022-09-17T04:45:59;14.90;;;5.70;;
239;SDS011;104;53.590;10.004;2022-09-17T04:48:27;14.17;;;6.07;;
239;SDS011;104;53.590;10.004;2022-09-17T04:50:54;10.73;;;5.50;;
239;SDS011;104;53.590;10.004;2022-09-17T04:53:21;11.00;;;5.80;;
239;SDS011;104;53.590;10.004;2022-09-17T04:55:48;12.63;;;6.00;;
239;SDS011;104;53.590;10.004;2022-09-17T04:58:15;9.83;;;5.97;;
239;SDS011;104;53.590;10.004;2022-09-17T05:00:42;8.07;;;4.90;;
239;SDS011;104;53.590;10.004;2022-09-17T05:03:09;11.17;;;5.70;;
239;SDS011;104;53.590;10.004;2022-09-17T05:05:37;8.27;;;5.73;;
239;SDS011;104;53.590;10.004;2022-09-17T05:08:04;10.40;;;5.10;;
239;SDS011;104;53.590;10.004;2022-09-17T05:10:32;6.17;;;5.00;;
239;SDS011;104;53.590;10.004;2022-09-17T05:12:59;11.00;;;5.90;;
239;SDS011;104;53.590;10.004;2022-09-17T05:15:26;10.13;;;5.03;;
239;SDS011;104;53.590;10.004;2022-09-17T05:17:53;9.63;;;5.80;;
239;SDS011;104;53.590;10.004;2022-09-17T05:20:21;8.97;;;5.30;;
239;SDS011;104;53.590;10.004;2022-09-17T05:22:50;8.33;;;4.97;;
239;SDS011;104;53.590;10.004;2022-09-17T05:25:19;10.43;;;5.10;;
239;SDS011;104;53.590;10.004;2022-09-17T05:27:48;18.70;;;5.00;;
239;SDS011;104;53.590;10.004;2022-09-17T05:30:15;13.73;;;5.10;;
239;SDS011;104;53.590;10.004;2022-09-17T05:32:42;9.63;;;5.70;;
239;SDS011;104;53.590;10.004;2022-09-17T05:35:09;10.20;;;4.90;;
239;SDS011;104;53.590;10.004;2022-09-17T05:37:36;11.00;;;4.90;;
239;SDS011;104;53.590;10.004;2022-09-17T05:40:06;11.27;;;5.27;;
239;SDS011;104;53.590;10.004;2022-09-17T05:42:34;13.13;;;5.03;;
239;SDS011;104;53.590;10.004;2022-09-17T05:45:01;7.10;;;4.80;;
239;SDS011;104;53.590;10.004;2022-09-17T05:47:29;11.57;;;4.90;;
239;SDS011;104;53.590;10.004;2022-09-17T05:49:56;8.90;;;4.90;;
239;SDS011;104;53.590;10.004;2022-09-17T05:52:25;9.00;;;4.70;;
239;SDS011;104;53.590;10.004;2022-09-17T05:54:56;12.70;;;4.80;;
239;SDS011;104;53.590;10.004;2022-09-17T05:57:25;8.40;;;4.43;;
239;SDS011;104;53.590;10.004;2022-09-17T05:59:54;13.17;;;4.70;;
239;SDS011;104;53.590;10.004;2022-09-17T06:02:29;6.80;;;4.03;;
239;SDS011;104;53.590;10.004;2022-09-17T06:04:55;7.07;;;3.97;;
239;SDS011;104;53.590;10.004;2022-09-17T06:07:24;15.90;;;4.47;;
239;SDS011;104;53.590;10.004;2022-09-17T06:09:51;10.17;;;4.00;;
239;SDS011;104;53.590;10.004;2022-09-17T06:12:18;6.13;;;3.57;;
239;SDS011;104;53.590;10.004;2022-09-17T06:14:49;8.83;;;4.00;;
239;SDS011;104;53.590;10.004;2022-09-17T06:17:16;10.13;;;4.30;;
239;SDS011;104;53.590;10.004;2022-09-17T06:19:43;8.60;;;3.90;;
239;SDS011;104;53.590;10.004;2022-09-17T06:22:10;20.57;;;4.07;;
239;SDS011;104;53.590;10.004;2022-09-17T06:24:37;9.57;;;4.13;;
239;SDS011;104;53.590;10.004;2022-09-17T06:27:04;8.87;;;3.70;;
239;SDS011;104;53.590;10.004;2022-09-17T06:29:31;12.40;;;4.00;;
239;SDS011;104;53.590;10.004;2022-09-17T06:32:03;12.10;;;7.40;;
239;SDS011;104;53.590;10.004;2022-09-17T06:34:35;6.40;;;3.77;;
239;SDS011;104;53.590;10.004;2022-09-17T06:37:02;16.30;;;3.77;;
239;SDS011;104;53.590;10.004;2022-09-17T06:39:29;6.17;;;4.10;;
239;SDS011;104;53.590;10.004;2022-09-17T06:41:56;8.93;;;3.70;;
239;SDS011;104;53.590;10.004;2022-09-17T06:44:22;17.40;;;4.00;;
239;SDS011;104;53.590;10.004;2022-09-17T06:46:49;16.27;;;3.83;;
239;SDS011;104;53.590;10.004;2022-09-17T06:49:18;15.03;;;4.03;;
239;SDS011;104;53.590;10.004;2022-09-17T06:51:46;9.63;;;3.70;;
239;SDS011;104;53.590;10.004;2022-09-17T06:54:13;14.33;;;4.20;;
239;SDS011;104;53.590;10.004;2022-09-17T06:56:40;7.77;;;3.60;;
239;SDS011;104;53.590;10.004;2022-09-17T06:59:07;10.47;;;4.00;;
239;SDS011;104;53.590;10.004;2022-09-17T07:01:34;9.23;;;3.83;;
239;SDS011;104;53.590;10.004;2022-09-17T07:04:01;10.90;;;4.20;;
239;SDS011;104;53.590;10.004;2022-09-17T07:06:30;8.67;;;4.07;;
239;SDS011;104;53.590;10.004;2022-09-17T07:08:57;7.63;;;3.97;;
239;SDS011;104;53.590;10.004;2022-09-17T07:11:24;8.70;;;3.90;;
239;SDS011;104;53.590;10.004;2022-09-17T07:13:51;7.83;;;3.87;;
239;SDS011;104;53.590;10.004;2022-09-17T07:16:18;5.77;;;3.77;;
239;SDS011;104;53.590;10.004;2022-09-17T07:18:45;10.43;;;4.17;;
239;SDS011;104;53.590;10.004;2022-09-17T07:21:11;10.47;;;3.77;;
239;SDS011;104;53.590;10.004;2022-09-17T07:23:40;7.27;;;3.73;;
239;SDS011;104;53.590;10.004;2022-09-17T07:26:07;6.77;;;3.67;;
239;SDS011;104;53.590;10.004;2022-09-17T07:28:38;5.60;;;3.63;;
239;SDS011;104;53.590;10.004;2022-09-17T07:31:06;8.63;;;3.57;;
239;SDS011;104;53.590;10.004;2022-09-17T07:33:33;7.03;;;4.10;;
239;SDS011;104;53.590;10.004;2022-09-17T07:36:02;12.43;;;3.90;;
239;SDS011;104;53.590;10.004;2022-09-17T07:38:31;11.57;;;4.13;;
239;SDS011;104;53.590;10.004;2022-09-17T07:41:01;6.23;;;4.00;;
239;SDS011;104;53.590;10.004;2022-09-17T07:43:30;7.80;;;3.60;;
239;SDS011;104;53.590;10.004;2022-09-17T07:45:59;6.67;;;3.87;;
239;SDS011;104;53.590;10.004;2022-09-17T07:48:27;5.13;;;3.80;;
239;SDS011;104;53.590;10.004;2022-09-17T07:50:54;5.20;;;3.60;;
239;SDS011;104;53.590;10.004;2022-09-17T07:53:22;3.33;;;2.93;;
239;SDS011;104;53.590;10.004;2022-09-17T07:55:52;3.67;;;3.13;;
239;SDS011;104;53.590;10.004;2022-09-17T07:58:22;6.40;;;3.20;;
239;SDS011;104;53.590;10.004;2022-09-17T08:00:49;2.90;;;2.70;;
239;SDS011;104;53.590;10.004;2022-09-17T08:03:16;6.00;;;3.30;;
239;SDS011;104;53.590;10.004;2022-09-17T08:05:43;3.20;;;2.80;;
239;SDS011;104;53.590;10.004;2022-09-17T08:08:10;5.23;;;4.00;;
239;SDS011;104;53.590;10.004;2022-09-17T08:10:37;11.70;;;4.33;;
239;SDS011;104;53.590;10.004;2022-09-17T08:13:04;4.70;;;3.77;;
239;SDS011;104;53.590;10.004;2022-09-17T08:15:32;4.07;;;3.20;;
239;SDS011;104;53.590;10.004;2022-09-17T08:17:59;3.00;;;2.83;;
239;SDS011;104;53.590;10.004;2022-09-17T08:20:26;4.83;;;2.77;;
239;SDS011;104;53.590;10.004;2022-09-17T08:22:57;7.53;;;2.40;;
239;SDS011;104;53.590;10.004;2022-09-17T08:25:25;5.10;;;2.50;;
239;SDS011;104;53.590;10.004;2022-09-17T08:27:52;7.07;;;2.70;;
239;SDS011;104;53.590;10.004;2022-09-17T08:30:20;6.37;;;2.77;;
239;SDS011;104;53.590;10.004;2022-09-17T08:32:48;2.63;;;2.30;;
239;SDS011;104;53.590;10.004;2022-09-17T08:35:16;2.20;;;2.00;;
239;SDS011;104;53.590;10.004;2022-09-17T08:37:43;2.60;;;2.30;;
239;SDS011;104;53.590;10.004;2022-09-17T08:40:12;4.83;;;2.60;;
239;SDS011;104;53.590;10.004;2022-09-17T08:42:48;2.00;;;1.90;;
239;SDS011;104;53.590;10.004;2022-09-17T08:45:21;3.83;;;2.40;;
239;SDS011;104;53.590;10.004;2022-09-17T08:47:51;2.37;;;2.20;;
239;SDS011;104;53.590;10.004;2022-09-17T08:50:24;6.03;;;2.43;;
239;SDS011;104;53.590;10.004;2022-09-17T08:52:59;5.20;;;2.70;;
239;SDS011;104;53.590;10.004;2022-09-17T08:55:37;3.70;;;2.33;;
239;SDS011;104;53.590;10.004;2022-09-17T09:01:33;3.30;;;2.70;;
239;SDS011;104;53.590;10.004;2022-09-17T09:04:21;2.77;;;2.57;;
239;SDS011;104;53.590;10.004;2022-09-17T09:07:00;3.47;;;3.07;;
239;SDS011;104;53.590;10.004;2022-09-17T09:09:33;2.70;;;2.57;;
239;SDS011;104;53.590;10.004;2022-09-17T09:12:04;2.93;;;2.40;;
239;SDS011;104;53.590;10.004;2022-09-17T09:14:36;3.70;;;2.73;;
239;SDS011;104;53.590;10.004;2022-09-17T09:17:12;4.60;;;3.10;;
239;SDS011;104;53.590;10.004;2022-09-17T09:19:45;3.33;;;3.07;;
239;SDS011;104;53.590;10.004;2022-09-17T09:22:20;4.17;;;2.57;;
239;SDS011;104;53.590;10.004;2022-09-17T09:25:02;4.23;;;2.60;;
239;SDS011;104;53.590;10.004;2022-09-17T09:27:37;2.90;;;2.40;;
239;SDS011;104;53.590;10.004;2022-09-17T09:30:13;8.63;;;3.50;;
239;SDS011;104;53.590;10.004;2022-09-17T09:32:46;6.00;;;3.00;;
239;SDS011;104;53.590;10.004;2022-09-17T09:35:24;4.20;;;3.20;;
239;SDS011;104;53.590;10.004;2022-09-17T09:37:55;3.57;;;3.27;;
239;SDS011;104;53.590;10.004;2022-09-17T09:40:35;4.87;;;3.47;;
239;SDS011;104;53.590;10.004;2022-09-17T09:43:11;5.63;;;3.90;;
239;SDS011;104;53.590;10.004;2022-09-17T09:45:46;10.37;;;4.07;;
239;SDS011;104;53.590;10.004;2022-09-17T09:48:35;6.63;;;3.63;;
239;SDS011;104;53.590;10.004;2022-09-17T09:51:14;5.97;;;3.67;;
239;SDS011;104;53.590;10.004;2022-09-17T09:53:53;6.50;;;3.23;;
239;SDS011;104;53.590;10.004;2022-09-17T09:56:42;4.60;;;3.80;;
239;SDS011;104;53.590;10.004;2022-09-17T09:59:14;6.97;;;3.80;;
239;SDS011;104;53.590;10.004;2022-09-17T10:01:41;5.60;;;4.10;;
239;SDS011;104;53.590;10.004;2022-09-17T10:04:19;10.13;;;4.20;;
239;SDS011;104;53.590;10.004;2022-09-17T10:06:49;4.20;;;3.77;;
239;SDS011;104;53.590;10.004;2022-09-17T10:09:18;7.20;;;5.17;;
239;SDS011;104;53.590;10.004;2022-09-17T10:11:57;4.73;;;4.10;;
239;SDS011;104;53.590;10.004;2022-09-17T10:14:30;9.17;;;4.80;;
239;SDS011;104;53.590;10.004;2022-09-17T10:17:14;8.50;;;5.50;;
239;SDS011;104;53.590;10.004;2022-09-17T10:19:46;8.33;;;3.90;;
239;SDS011;104;53.590;10.004;2022-09-17T10:22:31;6.00;;;4.27;;
239;SDS011;104;53.590;10.004;2022-09-17T10:25:00;7.47;;;5.23;;
239;SDS011;104;53.590;10.004;2022-09-17T10:27:30;6.57;;;4.30;;
239;SDS011;104;53.590;10.004;2022-09-17T10:30:01;8.63;;;4.80;;
239;SDS011;104;53.590;10.004;2022-09-17T10:32:40;6.83;;;4.20;;
239;SDS011;104;53.590;10.004;2022-09-17T10:35:24;6.23;;;3.70;;
239;SDS011;104;53.590;10.004;2022-09-17T10:37:54;7.57;;;4.60;;
239;SDS011;104;53.590;10.004;2022-09-17T10:40:26;10.87;;;4.73;;
239;SDS011;104;53.590;10.004;2022-09-17T10:43:17;8.90;;;4.57;;
239;SDS011;104;53.590;10.004;2022-09-17T10:45:54;15.30;;;4.30;;
239;SDS011;104;53.590;10.004;2022-09-17T10:48:23;8.43;;;4.00;;
239;SDS011;104;53.590;10.004;2022-09-17T10:50:52;7.50;;;4.77;;
239;SDS011;104;53.590;10.004;2022-09-17T10:53:23;8.33;;;4.70;;
239;SDS011;104;53.590;10.004;2022-09-17T10:55:53;10.57;;;5.63;;
239;SDS011;104;53.590;10.004;2022-09-17T10:58:34;10.90;;;4.37;;
239;SDS011;104;53.590;10.004;2022-09-17T11:01:09;8.80;;;4.33;;
239;SDS011;104;53.590;10.004;2022-09-17T11:07:03;13.50;;;5.63;;
239;SDS011;104;53.590;10.004;2022-09-17T11:09:46;16.70;;;7.10;;
239;SDS011;104;53.590;10.004;2022-09-17T11:12:23;11.20;;;5.70;;
239;SDS011;104;53.590;10.004;2022-09-17T11:15:00;8.20;;;5.20;;
239;SDS011;104;53.590;10.004;2022-09-17T11:17:42;12.47;;;5.27;;
239;SDS011;104;53.590;10.004;2022-09-17T11:20:30;17.20;;;5.87;;
239;SDS011;104;53.590;10.004;2022-09-17T11:23:14;18.70;;;6.80;;
239;SDS011;104;53.590;10.004;2022-09-17T11:26:06;20.33;;;4.67;;
239;SDS011;104;53.590;10.004;2022-09-17T11:28:44;12.23;;;5.23;;
239;SDS011;104;53.590;10.004;2022-09-17T11:31:21;14.73;;;4.80;;
239;SDS011;104;53.590;10.004;2022-09-17T11:33:59;11.13;;;4.93;;
239;SDS011;104;53.590;10.004;2022-09-17T11:36:43;11.80;;;4.60;;
239;SDS011;104;53.590;10.004;2022-09-17T11:39:15;9.23;;;4.13;;
239;SDS011;104;53.590;10.004;2022-09-17T11:41:47;9.93;;;5.53;;
239;SDS011;104;53.590;10.004;2022-09-17T11:44:19;11.73;;;4.70;;
239;SDS011;104;53.590;10.004;2022-09-17T11:46:51;9.70;;;4.80;;
239;SDS011;104;53.590;10.004;2022-09-17T11:49:26;9.97;;;4.47;;
239;SDS011;104;53.590;10.004;2022-09-17T11:52:00;11.70;;;4.93;;
239;SDS011;104;53.590;10.004;2022-09-17T11:54:32;6.93;;;4.00;;
239;SDS011;104;53.590;10.004;2022-09-17T11:57:08;17.93;;;3.80;;
239;SDS011;104;53.590;10.004;2022-09-17T11:59:41;9.40;;;4.10;;
239;SDS011;104;53.590;10.004;2022-09-17T12:02:14;10.67;;;4.27;;
239;SDS011;104;53.590;10.004;2022-09-17T12:04:47;12.13;;;5.23;;
239;SDS011;104;53.590;10.004;2022-09-17T12:07:24;17.07;;;4.50;;
239;SDS011;104;53.590;10.004;2022-09-17T12:09:58;9.93;;;3.90;;
239;SDS011;104;53.590;10.004;2022-09-17T12:12:33;8.93;;;4.33;;
239;SDS011;104;53.590;10.004;2022-09-17T12:15:13;13.67;;;4.70;;
239;SDS011;104;53.590;10.004;2022-09-17T12:17:43;9.90;;;4.83;;
239;SDS011;104;53.590;10.004;2022-09-17T12:20:17;10.27;;;4.73;;
239;SDS011;104;53.590;10.004;2022-09-17T12:22:52;9.10;;;4.17;;
239;SDS011;104;53.590;10.004;2022-09-17T12:25:20;18.10;;;5.07;;
239;SDS011;104;53.590;10.004;2022-09-17T12:27:50;6.30;;;4.27;;
239;SDS011;104;53.590;10.004;2022-09-17T12:30:22;8.90;;;4.80;;
239;SDS011;104;53.590;10.004;2022-09-17T12:33:00;7.90;;;4.13;;
239;SDS011;104;53.590;10.004;2022-09-17T12:35:41;17.50;;;4.40;;
239;SDS011;104;53.590;10.004;2022-09-17T12:38:32;10.43;;;4.53;;
239;SDS011;104;53.590;10.004;2022-09-17T12:41:18;9.90;;;4.20;;
239;SDS011;104;53.590;10.004;2022-09-17T12:43:54;5.73;;;3.03;;
239;SDS011;104;53.590;10.004;2022-09-17T12:46:37;11.10;;;3.43;;
239;SDS011;104;53.590;10.004;2022-09-17T12:49:17;6.77;;;4.03;;
239;SDS011;104;53.590;10.004;2022-09-17T12:51:53;7.30;;;3.50;;
239;SDS011;104;53.590;10.004;2022-09-17T12:54:29;9.77;;;4.47;;
239;SDS011;104;53.590;10.004;2022-09-17T12:57:20;10.60;;;4.17;;
239;SDS011;104;53.590;10.004;2022-09-17T12:59:59;6.50;;;3.70;;
239;SDS011;104;53.590;10.004;2022-09-17T13:02:30;8.27;;;3.80;;
239;SDS011;104;53.590;10.004;2022-09-17T13:05:08;11.90;;;4.10;;
239;SDS011;104;53.590;10.004;2022-09-17T13:07:56;10.20;;;4.00;;
239;SDS011;104;53.590;10.004;2022-09-17T13:10:48;13.17;;;4.40;;
239;SDS011;104;53.590;10.004;2022-09-17T13:13:34;7.20;;;3.63;;
239;SDS011;104;53.590;10.004;2022-09-17T13:16:08;6.47;;;3.90;;
239;SDS011;104;53.590;10.004;2022-09-17T13:18:41;12.47;;;3.10;;
239;SDS011;104;53.590;10.004;2022-09-17T13:21:14;7.43;;;4.10;;
239;SDS011;104;53.590;10.004;2022-09-17T13:23:47;5.33;;;3.00;;
239;SDS011;104;53.590;10.004;2022-09-17T13:26:17;7.90;;;3.20;;
239;SDS011;104;53.590;10.004;2022-09-17T13:28:46;5.30;;;2.90;;
239;SDS011;104;53.590;10.004;2022-09-17T13:31:19;9.20;;;3.43;;
239;SDS011;104;53.590;10.004;2022-09-17T13:33:57;5.20;;;3.33;;
239;SDS011;104;53.590;10.004;2022-09-17T13:36:34;9.83;;;3.50;;
239;SDS011;104;53.590;10.004;2022-09-17T13:39:06;5.20;;;3.27;;
239;SDS011;104;53.590;10.004;2022-09-17T13:41:35;8.33;;;3.93;;
239;SDS011;104;53.590;10.004;2022-09-17T13:44:05;6.63;;;3.43;;
239;SDS011;104;53.590;10.004;2022-09-17T13:46:35;5.13;;;3.30;;
239;SDS011;104;53.590;10.004;2022-09-17T13:49:04;6.67;;;3.20;;
239;SDS011;104;53.590;10.004;2022-09-17T13:51:48;4.73;;;3.33;;
239;SDS011;104;53.590;10.004;2022-09-17T13:54:18;7.63;;;3.90;;
239;SDS011;104;53.590;10.004;2022-09-17T13:56:48;5.43;;;3.73;;
239;SDS011;104;53.590;10.004;2022-09-17T13:59:28;8.17;;;3.60;;
239;SDS011;104;53.590;10.004;2022-09-17T14:01:58;6.20;;;2.67;;
239;SDS011;104;53.590;10.004;2022-09-17T14:04:53;2.90;;;2.70;;
239;SDS011;104;53.590;10.004;2022-09-17T14:07:34;5.20;;;2.70;;
239;SDS011;104;53.590;10.004;2022-09-17T14:15:54;5.93;;;2.80;;
239;SDS011;104;53.590;10.004;2022-09-17T14:18:44;4.13;;;3.03;;
239;SDS011;104;53.590;10.004;2022-09-17T14:21:24;3.43;;;3.00;;
239;SDS011;104;53.590;10.004;2022-09-17T14:23:55;3.07;;;2.97;;
239;SDS011;104;53.590;10.004;2022-09-17T14:29:44;12.00;;;5.17;;
239;SDS011;104;53.590;10.004;2022-09-17T14:32:27;4.83;;;3.77;;
239;SDS011;104;53.590;10.004;2022-09-17T14:34:58;7.77;;;4.10;;
239;SDS011;104;53.590;10.004;2022-09-17T14:37:28;4.70;;;3.30;;
239;SDS011;104;53.590;10.004;2022-09-17T14:39:55;4.40;;;3.30;;
239;SDS011;104;53.590;10.004;2022-09-17T14:42:24;5.43;;;3.67;;
239;SDS011;104;53.590;10.004;2022-09-17T14:44:58;3.80;;;3.60;;
239;SDS011;104;53.590;10.004;2022-09-17T14:47:27;7.47;;;4.00;;
239;SDS011;104;53.590;10.004;2022-09-17T14:50:08;7.40;;;4.30;;
239;SDS011;104;53.590;10.004;2022-09-17T14:52:50;5.13;;;3.70;;
239;SDS011;104;53.590;10.004;2022-09-17T14:55:19;4.23;;;3.40;;
239;SDS011;104;53.590;10.004;2022-09-17T14:57:48;4.00;;;3.20;;
239;SDS011;104;53.590;10.004;2022-09-17T15:00:19;7.13;;;3.10;;
239;SDS011;104;53.590;10.004;2022-09-17T15:02:52;3.60;;;2.80;;
239;SDS011;104;53.590;10.004;2022-09-17T15:05:24;4.67;;;3.40;;
239;SDS011;104;53.590;10.004;2022-09-17T15:08:06;2.87;;;2.67;;
239;SDS011;104;53.590;10.004;2022-09-17T15:10:43;4.60;;;3.27;;
239;SDS011;104;53.590;10.004;2022-09-17T15:13:14;4.70;;;4.10;;
239;SDS011;104;53.590;10.004;2022-09-17T15:15:49;9.23;;;3.80;;
239;SDS011;104;53.590;10.004;2022-09-17T15:18:21;2.13;;;2.00;;
239;SDS011;104;53.590;10.004;2022-09-17T15:20:57;9.53;;;2.60;;
239;SDS011;104;53.590;10.004;2022-09-17T15:23:27;2.90;;;2.70;;
239;SDS011;104;53.590;10.004;2022-09-17T15:25:57;3.10;;;2.67;;
239;SDS011;104;53.590;10.004;2022-09-17T15:28:27;4.53;;;3.27;;
239;SDS011;104;53.590;10.004;2022-09-17T15:30:57;8.33;;;4.30;;
239;SDS011;104;53.590;10.004;2022-09-17T15:33:25;3.90;;;3.63;;
239;SDS011;104;53.590;10.004;2022-09-17T15:36:00;3.40;;;3.20;;
239;SDS011;104;53.590;10.004;2022-09-17T15:38:35;6.90;;;3.10;;
239;SDS011;104;53.590;10.004;2022-09-17T15:41:22;6.10;;;3.50;;
239;SDS011;104;53.590;10.004;2022-09-17T15:44:04;3.40;;;3.00;;
239;SDS011;104;53.590;10.004;2022-09-17T15:46:32;3.30;;;2.97;;
239;SDS011;104;53.590;10.004;2022-09-17T15:48:59;4.03;;;2.90;;
239;SDS011;104;53.590;10.004;2022-09-17T15:51:29;2.93;;;2.77;;
239;SDS011;104;53.590;10.004;2022-09-17T15:53:58;4.03;;;3.10;;
239;SDS011;104;53.590;10.004;2022-09-17T15:56:29;3.47;;;2.93;;
239;SDS011;104;53.590;10.004;2022-09-17T15:58:59;11.80;;;4.87;;
239;SDS011;104;53.590;10.004;2022-09-17T16:04:17;6.57;;;3.10;;
239;SDS011;104;53.590;10.004;2022-09-17T16:06:51;3.07;;;2.80;;
239;SDS011;104;53.590;10.004;2022-09-17T16:09:38;4.67;;;3.00;;
239;SDS011;104;53.590;10.004;2022-09-17T16:12:12;2.70;;;2.50;;
239;SDS011;104;53.590;10.004;2022-09-17T16:14:45;3.83;;;2.73;;
239;SDS011;104;53.590;10.004;2022-09-17T16:17:19;2.70;;;2.50;;